sensor_id;sensor_type;location;lat;lon;timestamp;temperature;humidity
40434;DHT22;26146;51.114;5.654;2023-07-31T00:03:47;18.40;99.90
40434;DHT22;26146;51.114;5.654;2023-07-31T00:07:48;18.40;99.90
40434;DHT22;26146;51.114;5.654;2023-07-31T00:11:49;18.40;99.90
40434;DHT22;26146;51.114;5.654;2023-07-31T00:15:51;18.40;99.90
40434;DHT22;26146;51.114;5.654;2023-07-31T00:19:52;18.20;99.90
40434;DHT22;26146;51.114;5.654;2023-07-31T00:23:54;18.30;99.90
40434;DHT22;26146;51.114;5.654;2023-07-31T00:27:54;18.30;99.90
40434;DHT22;26146;51.114;5.654;2023-07-31T00:31:55;18.40;99.90
40434;DHT22;26146;51.114;5.654;2023-07-31T00:35:56;18.30;99.90
40434;DHT22;26146;51.114;5.654;2023-07-31T00:40:00;18.30;99.90
40434;DHT22;26146;51.114;5.654;2023-07-31T00:44:01;18.10;99.90
40434;DHT22;26146;51.114;5.654;2023-07-31T00:48:02;18.00;99.90
40434;DHT22;26146;51.114;5.654;2023-07-31T00:52:03;18.00;99.90
40434;DHT22;26146;51.114;5.654;2023-07-31T00:56:04;18.00;99.90
40434;DHT22;26146;51.114;5.654;2023-07-31T01:00:06;18.00;99.90
40434;DHT22;26146;51.114;5.654;2023-07-31T01:04:08;18.10;99.90
40434;DHT22;26146;51.114;5.654;2023-07-31T01:08:18;18.00;99.90
40434;DHT22;26146;51.114;5.654;2023-07-31T01:12:24;18.00;99.90
40434;DHT22;26146;51.114;5.654;2023-07-31T01:16:27;18.00;99.90
40434;DHT22;26146;51.114;5.654;2023-07-31T01:20:29;18.30;99.90
40434;DHT22;26146;51.114;5.654;2023-07-31T01:29:20;18.10;99.90
40434;DHT22;26146;51.114;5.654;2023-07-31T01:33:24;18.10;99.90
40434;DHT22;26146;51.114;5.654;2023-07-31T01:37:29;18.10;99.90
40434;DHT22;26146;51.114;5.654;2023-07-31T01:41:32;18.30;99.90
40434;DHT22;26146;51.114;5.654;2023-07-31T01:45:33;18.40;99.90
40434;DHT22;26146;51.114;5.654;2023-07-31T01:49:34;18.30;99.90
40434;DHT22;26146;51.114;5.654;2023-07-31T01:53:35;18.30;99.90
40434;DHT22;26146;51.114;5.654;2023-07-31T01:57:37;18.30;99.90
40434;DHT22;26146;51.114;5.654;2023-07-31T02:01:38;18.30;99.90
40434;DHT22;26146;51.114;5.654;2023-07-31T02:05:46;18.40;99.90
40434;DHT22;26146;51.114;5.654;2023-07-31T02:09:47;18.40;99.90
40434;DHT22;26146;51.114;5.654;2023-07-31T02:13:48;18.30;99.90
40434;DHT22;26146;51.114;5.654;2023-07-31T02:17:49;18.30;99.90
40434;DHT22;26146;51.114;5.654;2023-07-31T02:21:50;18.30;99.90
40434;DHT22;26146;51.114;5.654;2023-07-31T02:25:51;18.50;99.90
40434;DHT22;26146;51.114;5.654;2023-07-31T02:29:52;18.50;99.90
40434;DHT22;26146;51.114;5.654;2023-07-31T02:33:53;18.60;99.90
40434;DHT22;26146;51.114;5.654;2023-07-31T02:37:54;18.60;99.90
40434;DHT22;26146;51.114;5.654;2023-07-31T02:41:55;18.50;99.90
40434;DHT22;26146;51.114;5.654;2023-07-31T02:45:59;18.60;99.90
40434;DHT22;26146;51.114;5.654;2023-07-31T02:50:01;18.60;99.90
40434;DHT22;26146;51.114;5.654;2023-07-31T02:54:02;18.50;99.90
40434;DHT22;26146;51.114;5.654;2023-07-31T02:58:05;18.70;99.90
40434;DHT22;26146;51.114;5.654;2023-07-31T03:02:06;18.50;99.90
40434;DHT22;26146;51.114;5.654;2023-07-31T03:06:07;18.60;99.90
40434;DHT22;26146;51.114;5.654;2023-07-31T03:10:08;18.60;99.90
40434;DHT22;26146;51.114;5.654;2023-07-31T03:14:09;18.60;99.90
40434;DHT22;26146;51.114;5.654;2023-07-31T03:18:10;18.70;99.90
40434;DHT22;26146;51.114;5.654;2023-07-31T03:22:11;18.70;99.90
40434;DHT22;26146;51.114;5.654;2023-07-31T03:26:12;18.60;99.90
40434;DHT22;26146;51.114;5.654;2023-07-31T03:30:14;18.40;99.90
40434;DHT22;26146;51.114;5.654;2023-07-31T03:34:19;18.50;99.90
40434;DHT22;26146;51.114;5.654;2023-07-31T03:38:20;18.50;99.90
40434;DHT22;26146;51.114;5.654;2023-07-31T03:42:21;18.60;99.90
40434;DHT22;26146;51.114;5.654;2023-07-31T03:46:23;18.60;99.90
40434;DHT22;26146;51.114;5.654;2023-07-31T03:50:26;18.60;99.90
40434;DHT22;26146;51.114;5.654;2023-07-31T03:54:27;18.60;99.90
40434;DHT22;26146;51.114;5.654;2023-07-31T03:58:28;18.80;99.90
40434;DHT22;26146;51.114;5.654;2023-07-31T04:02:29;18.70;99.90
40434;DHT22;26146;51.114;5.654;2023-07-31T04:06:30;18.70;99.90
40434;DHT22;26146;51.114;5.654;2023-07-31T04:10:34;18.70;99.90
40434;DHT22;26146;51.114;5.654;2023-07-31T04:14:34;18.60;99.90
40434;DHT22;26146;51.114;5.654;2023-07-31T04:18:35;18.70;99.90
40434;DHT22;26146;51.114;5.654;2023-07-31T04:22:36;19.00;99.90
40434;DHT22;26146;51.114;5.654;2023-07-31T04:26:37;19.00;99.90
40434;DHT22;26146;51.114;5.654;2023-07-31T04:30:39;18.90;99.90
40434;DHT22;26146;51.114;5.654;2023-07-31T04:34:40;18.90;99.90
40434;DHT22;26146;51.114;5.654;2023-07-31T04:38:41;19.00;99.90
40434;DHT22;26146;51.114;5.654;2023-07-31T04:42:42;18.90;99.90
40434;DHT22;26146;51.114;5.654;2023-07-31T04:46:42;18.90;99.90
40434;DHT22;26146;51.114;5.654;2023-07-31T04:50:43;19.00;99.90
40434;DHT22;26146;51.114;5.654;2023-07-31T04:54:45;19.00;99.90
40434;DHT22;26146;51.114;5.654;2023-07-31T04:58:45;19.10;99.90
40434;DHT22;26146;51.114;5.654;2023-07-31T05:02:46;19.10;99.90
40434;DHT22;26146;51.114;5.654;2023-07-31T05:06:47;19.10;99.90
40434;DHT22;26146;51.114;5.654;2023-07-31T05:10:48;19.20;99.90
40434;DHT22;26146;51.114;5.654;2023-07-31T05:14:49;19.00;99.90
40434;DHT22;26146;51.114;5.654;2023-07-31T05:18:50;18.90;99.90
40434;DHT22;26146;51.114;5.654;2023-07-31T05:22:51;18.90;99.90
40434;DHT22;26146;51.114;5.654;2023-07-31T05:26:53;18.80;99.90
40434;DHT22;26146;51.114;5.654;2023-07-31T05:30:59;18.90;99.90
40434;DHT22;26146;51.114;5.654;2023-07-31T05:35:00;18.90;99.90
40434;DHT22;26146;51.114;5.654;2023-07-31T05:39:01;18.90;99.90
40434;DHT22;26146;51.114;5.654;2023-07-31T05:43:09;18.90;99.90
40434;DHT22;26146;51.114;5.654;2023-07-31T05:47:10;19.00;99.90
40434;DHT22;26146;51.114;5.654;2023-07-31T05:51:11;19.10;99.90
40434;DHT22;26146;51.114;5.654;2023-07-31T05:55:12;19.20;99.90
40434;DHT22;26146;51.114;5.654;2023-07-31T05:59:13;19.20;99.90
40434;DHT22;26146;51.114;5.654;2023-07-31T06:03:14;19.30;99.90
40434;DHT22;26146;51.114;5.654;2023-07-31T06:07:15;19.10;99.90
40434;DHT22;26146;51.114;5.654;2023-07-31T06:11:17;19.10;99.90
40434;DHT22;26146;51.114;5.654;2023-07-31T06:15:18;19.10;99.90
40434;DHT22;26146;51.114;5.654;2023-07-31T06:19:20;19.00;99.90
40434;DHT22;26146;51.114;5.654;2023-07-31T06:23:21;19.00;99.90
40434;DHT22;26146;51.114;5.654;2023-07-31T06:27:24;19.20;99.90
40434;DHT22;26146;51.114;5.654;2023-07-31T06:31:26;19.00;99.90
40434;DHT22;26146;51.114;5.654;2023-07-31T06:35:27;18.80;99.90
40434;DHT22;26146;51.114;5.654;2023-07-31T06:39:28;18.90;99.90
40434;DHT22;26146;51.114;5.654;2023-07-31T06:43:28;19.00;99.90
40434;DHT22;26146;51.114;5.654;2023-07-31T06:47:30;18.90;99.90
40434;DHT22;26146;51.114;5.654;2023-07-31T06:51:31;19.00;99.90
40434;DHT22;26146;51.114;5.654;2023-07-31T06:55:32;19.00;99.90
40434;DHT22;26146;51.114;5.654;2023-07-31T06:59:33;18.80;99.90
40434;DHT22;26146;51.114;5.654;2023-07-31T07:03:35;18.70;99.90
40434;DHT22;26146;51.114;5.654;2023-07-31T07:07:36;18.90;99.90
40434;DHT22;26146;51.114;5.654;2023-07-31T07:11:37;18.80;99.90
40434;DHT22;26146;51.114;5.654;2023-07-31T07:15:39;18.50;99.90
40434;DHT22;26146;51.114;5.654;2023-07-31T07:19:40;18.80;99.90
40434;DHT22;26146;51.114;5.654;2023-07-31T07:23:42;18.80;99.90
40434;DHT22;26146;51.114;5.654;2023-07-31T07:27:44;18.90;99.90
40434;DHT22;26146;51.114;5.654;2023-07-31T07:31:45;19.20;99.90
40434;DHT22;26146;51.114;5.654;2023-07-31T07:35:46;19.30;99.90
40434;DHT22;26146;51.114;5.654;2023-07-31T07:39:48;19.60;99.90
40434;DHT22;26146;51.114;5.654;2023-07-31T07:43:49;19.50;99.90
40434;DHT22;26146;51.114;5.654;2023-07-31T07:47:52;19.70;99.90
40434;DHT22;26146;51.114;5.654;2023-07-31T07:51:53;19.80;99.90
40434;DHT22;26146;51.114;5.654;2023-07-31T07:55:54;19.80;99.90
40434;DHT22;26146;51.114;5.654;2023-07-31T07:59:55;19.60;99.90
40434;DHT22;26146;51.114;5.654;2023-07-31T08:03:56;19.70;99.90
40434;DHT22;26146;51.114;5.654;2023-07-31T08:07:57;19.60;99.90
40434;DHT22;26146;51.114;5.654;2023-07-31T08:11:58;19.50;99.90
40434;DHT22;26146;51.114;5.654;2023-07-31T08:16:03;19.70;99.90
40434;DHT22;26146;51.114;5.654;2023-07-31T08:20:06;20.00;99.90
40434;DHT22;26146;51.114;5.654;2023-07-31T08:24:07;20.10;99.90
40434;DHT22;26146;51.114;5.654;2023-07-31T08:28:09;20.10;99.90
40434;DHT22;26146;51.114;5.654;2023-07-31T08:32:10;20.30;99.90
40434;DHT22;26146;51.114;5.654;2023-07-31T08:36:11;20.40;99.90
40434;DHT22;26146;51.114;5.654;2023-07-31T08:40:12;20.50;99.90
40434;DHT22;26146;51.114;5.654;2023-07-31T08:44:15;20.40;99.90
40434;DHT22;26146;51.114;5.654;2023-07-31T08:48:17;20.70;99.90
40434;DHT22;26146;51.114;5.654;2023-07-31T08:52:18;20.60;99.90
40434;DHT22;26146;51.114;5.654;2023-07-31T08:56:20;20.40;99.90
40434;DHT22;26146;51.114;5.654;2023-07-31T09:00:21;20.40;99.90
40434;DHT22;26146;51.114;5.654;2023-07-31T09:04:25;20.60;99.90
40434;DHT22;26146;51.114;5.654;2023-07-31T09:08:30;20.80;99.90
40434;DHT22;26146;51.114;5.654;2023-07-31T09:12:31;20.70;99.90
40434;DHT22;26146;51.114;5.654;2023-07-31T09:16:33;20.80;99.90
40434;DHT22;26146;51.114;5.654;2023-07-31T09:20:34;20.80;99.90
40434;DHT22;26146;51.114;5.654;2023-07-31T09:24:35;21.00;99.90
40434;DHT22;26146;51.114;5.654;2023-07-31T09:28:36;21.20;99.90
40434;DHT22;26146;51.114;5.654;2023-07-31T09:32:37;21.50;99.90
40434;DHT22;26146;51.114;5.654;2023-07-31T09:36:46;21.80;99.90
40434;DHT22;26146;51.114;5.654;2023-07-31T09:40:48;22.50;99.90
40434;DHT22;26146;51.114;5.654;2023-07-31T09:44:49;22.90;99.90
40434;DHT22;26146;51.114;5.654;2023-07-31T09:48:50;23.40;99.90
40434;DHT22;26146;51.114;5.654;2023-07-31T09:52:52;23.20;99.90
40434;DHT22;26146;51.114;5.654;2023-07-31T09:56:54;23.00;99.90
40434;DHT22;26146;51.114;5.654;2023-07-31T10:00:55;22.80;99.90
40434;DHT22;26146;51.114;5.654;2023-07-31T10:04:59;22.90;99.90
40434;DHT22;26146;51.114;5.654;2023-07-31T10:09:07;22.70;99.90
40434;DHT22;26146;51.114;5.654;2023-07-31T10:13:08;22.60;99.90
40434;DHT22;26146;51.114;5.654;2023-07-31T10:17:10;22.60;99.90
40434;DHT22;26146;51.114;5.654;2023-07-31T10:21:11;22.40;99.90
40434;DHT22;26146;51.114;5.654;2023-07-31T10:25:13;22.40;99.90
40434;DHT22;26146;51.114;5.654;2023-07-31T10:29:19;22.10;99.90
40434;DHT22;26146;51.114;5.654;2023-07-31T10:33:20;21.90;99.90
40434;DHT22;26146;51.114;5.654;2023-07-31T10:37:27;22.00;99.90
40434;DHT22;26146;51.114;5.654;2023-07-31T10:41:31;22.00;99.90
40434;DHT22;26146;51.114;5.654;2023-07-31T10:49:33;22.00;99.90
40434;DHT22;26146;51.114;5.654;2023-07-31T10:53:37;21.90;99.90
40434;DHT22;26146;51.114;5.654;2023-07-31T10:57:38;22.00;99.90
40434;DHT22;26146;51.114;5.654;2023-07-31T11:01:53;22.30;99.90
40434;DHT22;26146;51.114;5.654;2023-07-31T11:06:02;23.20;99.90
40434;DHT22;26146;51.114;5.654;2023-07-31T11:10:06;24.10;99.90
40434;DHT22;26146;51.114;5.654;2023-07-31T11:14:10;24.30;99.90
40434;DHT22;26146;51.114;5.654;2023-07-31T11:18:11;24.10;99.90
40434;DHT22;26146;51.114;5.654;2023-07-31T11:22:13;23.60;99.90
40434;DHT22;26146;51.114;5.654;2023-07-31T11:26:14;23.40;99.90
40434;DHT22;26146;51.114;5.654;2023-07-31T11:30:19;23.10;99.90
40434;DHT22;26146;51.114;5.654;2023-07-31T11:34:20;23.00;99.90
40434;DHT22;26146;51.114;5.654;2023-07-31T11:38:26;22.80;99.90
40434;DHT22;26146;51.114;5.654;2023-07-31T11:42:27;22.80;99.90
40434;DHT22;26146;51.114;5.654;2023-07-31T11:46:30;22.70;99.90
40434;DHT22;26146;51.114;5.654;2023-07-31T11:50:33;22.50;99.90
40434;DHT22;26146;51.114;5.654;2023-07-31T11:54:36;22.60;99.90
40434;DHT22;26146;51.114;5.654;2023-07-31T11:58:38;22.70;99.90
40434;DHT22;26146;51.114;5.654;2023-07-31T12:02:42;22.80;99.90
40434;DHT22;26146;51.114;5.654;2023-07-31T12:06:44;23.20;99.90
40434;DHT22;26146;51.114;5.654;2023-07-31T12:10:45;23.50;99.90
40434;DHT22;26146;51.114;5.654;2023-07-31T12:14:46;23.90;99.90
40434;DHT22;26146;51.114;5.654;2023-07-31T12:18:49;24.60;99.90
40434;DHT22;26146;51.114;5.654;2023-07-31T12:22:51;24.70;99.90
40434;DHT22;26146;51.114;5.654;2023-07-31T12:26:51;24.70;99.90
40434;DHT22;26146;51.114;5.654;2023-07-31T12:30:59;24.90;99.90
40434;DHT22;26146;51.114;5.654;2023-07-31T12:35:00;24.50;99.90
40434;DHT22;26146;51.114;5.654;2023-07-31T12:39:02;24.50;99.90
40434;DHT22;26146;51.114;5.654;2023-07-31T12:43:06;24.60;99.90
40434;DHT22;26146;51.114;5.654;2023-07-31T12:47:07;24.80;99.90
40434;DHT22;26146;51.114;5.654;2023-07-31T12:51:08;25.00;99.90
40434;DHT22;26146;51.114;5.654;2023-07-31T12:55:11;25.30;99.90
40434;DHT22;26146;51.114;5.654;2023-07-31T12:59:15;25.60;99.90
40434;DHT22;26146;51.114;5.654;2023-07-31T13:03:15;25.90;99.90
40434;DHT22;26146;51.114;5.654;2023-07-31T13:07:16;25.60;99.90
40434;DHT22;26146;51.114;5.654;2023-07-31T13:11:19;25.80;99.90
40434;DHT22;26146;51.114;5.654;2023-07-31T13:15:23;25.40;99.90
40434;DHT22;26146;51.114;5.654;2023-07-31T13:19:24;24.70;99.90
40434;DHT22;26146;51.114;5.654;2023-07-31T13:23:25;24.30;99.90
40434;DHT22;26146;51.114;5.654;2023-07-31T13:27:26;24.20;99.90
40434;DHT22;26146;51.114;5.654;2023-07-31T13:31:27;23.60;99.90
40434;DHT22;26146;51.114;5.654;2023-07-31T13:35:28;23.40;99.90
40434;DHT22;26146;51.114;5.654;2023-07-31T13:39:31;23.00;99.90
40434;DHT22;26146;51.114;5.654;2023-07-31T13:43:33;22.80;99.90
40434;DHT22;26146;51.114;5.654;2023-07-31T13:47:34;22.60;99.90
40434;DHT22;26146;51.114;5.654;2023-07-31T13:51:37;22.50;99.90
40434;DHT22;26146;51.114;5.654;2023-07-31T13:55:40;23.10;99.90
40434;DHT22;26146;51.114;5.654;2023-07-31T13:59:41;23.50;99.90
40434;DHT22;26146;51.114;5.654;2023-07-31T14:03:42;24.00;99.90
40434;DHT22;26146;51.114;5.654;2023-07-31T14:07:43;24.10;99.90
40434;DHT22;26146;51.114;5.654;2023-07-31T14:11:44;24.10;99.90
40434;DHT22;26146;51.114;5.654;2023-07-31T14:15:45;23.90;99.90
40434;DHT22;26146;51.114;5.654;2023-07-31T14:19:46;23.60;99.90
40434;DHT22;26146;51.114;5.654;2023-07-31T14:23:47;23.40;99.90
40434;DHT22;26146;51.114;5.654;2023-07-31T14:27:48;23.40;99.90
40434;DHT22;26146;51.114;5.654;2023-07-31T14:31:49;23.40;99.90
40434;DHT22;26146;51.114;5.654;2023-07-31T14:35:50;23.20;99.90
40434;DHT22;26146;51.114;5.654;2023-07-31T14:39:51;22.50;99.90
40434;DHT22;26146;51.114;5.654;2023-07-31T14:43:52;22.30;99.90
40434;DHT22;26146;51.114;5.654;2023-07-31T14:47:53;22.20;99.90
40434;DHT22;26146;51.114;5.654;2023-07-31T14:51:54;22.20;99.90
40434;DHT22;26146;51.114;5.654;2023-07-31T14:55:55;22.00;99.90
40434;DHT22;26146;51.114;5.654;2023-07-31T14:59:57;21.40;99.90
40434;DHT22;26146;51.114;5.654;2023-07-31T15:03:58;21.30;99.90
40434;DHT22;26146;51.114;5.654;2023-07-31T15:07:59;21.20;99.90
40434;DHT22;26146;51.114;5.654;2023-07-31T15:12:00;21.70;99.90
40434;DHT22;26146;51.114;5.654;2023-07-31T15:16:01;21.90;99.90
40434;DHT22;26146;51.114;5.654;2023-07-31T15:20:03;21.90;99.90
40434;DHT22;26146;51.114;5.654;2023-07-31T15:24:04;22.10;99.90
40434;DHT22;26146;51.114;5.654;2023-07-31T15:28:05;22.10;99.90
40434;DHT22;26146;51.114;5.654;2023-07-31T15:32:08;22.00;99.90
40434;DHT22;26146;51.114;5.654;2023-07-31T15:36:09;21.60;99.90
40434;DHT22;26146;51.114;5.654;2023-07-31T15:40:10;21.50;99.90
40434;DHT22;26146;51.114;5.654;2023-07-31T15:44:11;21.60;99.90
40434;DHT22;26146;51.114;5.654;2023-07-31T15:48:12;21.60;99.90
40434;DHT22;26146;51.114;5.654;2023-07-31T15:52:13;21.50;99.90
40434;DHT22;26146;51.114;5.654;2023-07-31T15:56:14;21.40;99.90
40434;DHT22;26146;51.114;5.654;2023-07-31T16:00:15;21.50;99.90
40434;DHT22;26146;51.114;5.654;2023-07-31T16:04:16;21.50;99.90
40434;DHT22;26146;51.114;5.654;2023-07-31T16:08:17;21.20;99.90
40434;DHT22;26146;51.114;5.654;2023-07-31T16:12:18;21.10;99.90
40434;DHT22;26146;51.114;5.654;2023-07-31T16:16:19;21.20;99.90
40434;DHT22;26146;51.114;5.654;2023-07-31T16:20:21;21.00;99.90
40434;DHT22;26146;51.114;5.654;2023-07-31T16:24:23;20.90;99.90
40434;DHT22;26146;51.114;5.654;2023-07-31T16:28:24;20.80;99.90
40434;DHT22;26146;51.114;5.654;2023-07-31T16:32:25;20.70;99.90
40434;DHT22;26146;51.114;5.654;2023-07-31T16:36:26;20.50;99.90
40434;DHT22;26146;51.114;5.654;2023-07-31T16:40:27;20.50;99.90
40434;DHT22;26146;51.114;5.654;2023-07-31T16:44:28;20.50;99.90
40434;DHT22;26146;51.114;5.654;2023-07-31T16:48:29;20.40;99.90
40434;DHT22;26146;51.114;5.654;2023-07-31T16:52:30;20.50;99.90
40434;DHT22;26146;51.114;5.654;2023-07-31T16:56:31;20.50;99.90
40434;DHT22;26146;51.114;5.654;2023-07-31T17:00:32;20.50;99.90
40434;DHT22;26146;51.114;5.654;2023-07-31T17:04:33;20.50;99.90
40434;DHT22;26146;51.114;5.654;2023-07-31T17:08:34;20.30;99.90
40434;DHT22;26146;51.114;5.654;2023-07-31T17:12:35;20.20;99.90
40434;DHT22;26146;51.114;5.654;2023-07-31T17:16:36;20.20;99.90
40434;DHT22;26146;51.114;5.654;2023-07-31T17:20:37;20.10;99.90
40434;DHT22;26146;51.114;5.654;2023-07-31T17:24:39;20.00;99.90
40434;DHT22;26146;51.114;5.654;2023-07-31T17:28:40;19.90;99.90
40434;DHT22;26146;51.114;5.654;2023-07-31T17:32:41;20.00;99.90
40434;DHT22;26146;51.114;5.654;2023-07-31T17:36:42;20.00;99.90
40434;DHT22;26146;51.114;5.654;2023-07-31T17:40:43;19.90;99.90
40434;DHT22;26146;51.114;5.654;2023-07-31T17:44:44;20.00;99.90
40434;DHT22;26146;51.114;5.654;2023-07-31T17:48:46;20.00;99.90
40434;DHT22;26146;51.114;5.654;2023-07-31T17:52:47;20.00;99.90
40434;DHT22;26146;51.114;5.654;2023-07-31T17:56:48;20.00;99.90
40434;DHT22;26146;51.114;5.654;2023-07-31T18:00:51;20.00;99.90
40434;DHT22;26146;51.114;5.654;2023-07-31T18:04:52;20.20;99.90
40434;DHT22;26146;51.114;5.654;2023-07-31T18:08:53;20.10;99.90
40434;DHT22;26146;51.114;5.654;2023-07-31T18:12:55;19.80;99.90
40434;DHT22;26146;51.114;5.654;2023-07-31T18:16:56;19.80;99.90
40434;DHT22;26146;51.114;5.654;2023-07-31T18:20:57;19.70;99.90
40434;DHT22;26146;51.114;5.654;2023-07-31T18:24:59;19.70;99.90
40434;DHT22;26146;51.114;5.654;2023-07-31T18:29:01;19.70;99.90
40434;DHT22;26146;51.114;5.654;2023-07-31T18:33:02;19.60;99.90
40434;DHT22;26146;51.114;5.654;2023-07-31T18:37:03;19.80;99.90
40434;DHT22;26146;51.114;5.654;2023-07-31T18:41:05;19.70;99.90
40434;DHT22;26146;51.114;5.654;2023-07-31T18:45:07;19.80;99.90
40434;DHT22;26146;51.114;5.654;2023-07-31T18:49:08;19.60;99.90
40434;DHT22;26146;51.114;5.654;2023-07-31T18:53:09;19.60;99.90
40434;DHT22;26146;51.114;5.654;2023-07-31T18:57:12;19.60;99.90
40434;DHT22;26146;51.114;5.654;2023-07-31T19:01:14;19.60;99.90
40434;DHT22;26146;51.114;5.654;2023-07-31T19:05:15;19.60;99.90
40434;DHT22;26146;51.114;5.654;2023-07-31T19:09:16;19.70;99.90
40434;DHT22;26146;51.114;5.654;2023-07-31T19:13:30;19.80;99.90
40434;DHT22;26146;51.114;5.654;2023-07-31T19:17:31;19.70;99.90
40434;DHT22;26146;51.114;5.654;2023-07-31T19:21:32;19.60;99.90
40434;DHT22;26146;51.114;5.654;2023-07-31T19:25:33;19.70;99.90
40434;DHT22;26146;51.114;5.654;2023-07-31T19:29:34;19.90;99.90
40434;DHT22;26146;51.114;5.654;2023-07-31T19:33:35;19.80;99.90
40434;DHT22;26146;51.114;5.654;2023-07-31T19:37:36;19.60;99.90
40434;DHT22;26146;51.114;5.654;2023-07-31T19:41:39;19.50;99.90
40434;DHT22;26146;51.114;5.654;2023-07-31T19:45:42;19.60;99.90
40434;DHT22;26146;51.114;5.654;2023-07-31T19:49:43;19.70;99.90
40434;DHT22;26146;51.114;5.654;2023-07-31T19:53:44;19.60;99.90
40434;DHT22;26146;51.114;5.654;2023-07-31T19:57:45;19.60;99.90
40434;DHT22;26146;51.114;5.654;2023-07-31T20:01:46;19.50;99.90
40434;DHT22;26146;51.114;5.654;2023-07-31T20:05:47;19.40;99.90
40434;DHT22;26146;51.114;5.654;2023-07-31T20:09:49;19.50;99.90
40434;DHT22;26146;51.114;5.654;2023-07-31T20:13:51;19.50;99.90
40434;DHT22;26146;51.114;5.654;2023-07-31T20:17:52;19.60;99.90
40434;DHT22;26146;51.114;5.654;2023-07-31T20:21:54;19.50;99.90
40434;DHT22;26146;51.114;5.654;2023-07-31T20:25:56;19.70;99.90
40434;DHT22;26146;51.114;5.654;2023-07-31T20:29:57;19.60;99.90
40434;DHT22;26146;51.114;5.654;2023-07-31T20:33:58;19.70;99.90
40434;DHT22;26146;51.114;5.654;2023-07-31T20:37:59;19.60;99.90
40434;DHT22;26146;51.114;5.654;2023-07-31T20:42:00;19.70;99.90
40434;DHT22;26146;51.114;5.654;2023-07-31T20:46:01;19.70;99.90
40434;DHT22;26146;51.114;5.654;2023-07-31T20:50:03;19.50;99.90
40434;DHT22;26146;51.114;5.654;2023-07-31T20:54:04;19.70;99.90
40434;DHT22;26146;51.114;5.654;2023-07-31T20:58:06;19.80;99.90
40434;DHT22;26146;51.114;5.654;2023-07-31T21:02:07;19.70;99.90
40434;DHT22;26146;51.114;5.654;2023-07-31T21:06:08;19.70;99.90
40434;DHT22;26146;51.114;5.654;2023-07-31T21:10:09;19.60;99.90
40434;DHT22;26146;51.114;5.654;2023-07-31T21:14:11;19.60;99.90
40434;DHT22;26146;51.114;5.654;2023-07-31T21:18:12;19.60;99.90
40434;DHT22;26146;51.114;5.654;2023-07-31T21:22:15;19.50;99.90
40434;DHT22;26146;51.114;5.654;2023-07-31T21:26:16;19.50;99.90
40434;DHT22;26146;51.114;5.654;2023-07-31T21:30:17;19.50;99.90
40434;DHT22;26146;51.114;5.654;2023-07-31T21:34:18;19.50;99.90
40434;DHT22;26146;51.114;5.654;2023-07-31T21:38:19;19.40;99.90
40434;DHT22;26146;51.114;5.654;2023-07-31T21:42:20;19.40;99.90
40434;DHT22;26146;51.114;5.654;2023-07-31T21:46:21;19.40;99.90
40434;DHT22;26146;51.114;5.654;2023-07-31T21:50:22;19.30;99.90
40434;DHT22;26146;51.114;5.654;2023-07-31T21:54:23;19.10;99.90
40434;DHT22;26146;51.114;5.654;2023-07-31T21:58:24;19.00;99.90
40434;DHT22;26146;51.114;5.654;2023-07-31T22:02:25;19.00;99.90
40434;DHT22;26146;51.114;5.654;2023-07-31T22:06:26;19.00;99.90
40434;DHT22;26146;51.114;5.654;2023-07-31T22:10:27;18.90;99.90
40434;DHT22;26146;51.114;5.654;2023-07-31T22:14:28;18.90;99.90
40434;DHT22;26146;51.114;5.654;2023-07-31T22:18:30;19.00;99.90
40434;DHT22;26146;51.114;5.654;2023-07-31T22:22:31;19.00;99.90
40434;DHT22;26146;51.114;5.654;2023-07-31T22:26:32;18.90;99.90
40434;DHT22;26146;51.114;5.654;2023-07-31T22:30:32;18.80;99.90
40434;DHT22;26146;51.114;5.654;2023-07-31T22:34:34;18.90;99.90
40434;DHT22;26146;51.114;5.654;2023-07-31T22:38:35;19.00;99.90
40434;DHT22;26146;51.114;5.654;2023-07-31T22:42:36;18.80;99.90
40434;DHT22;26146;51.114;5.654;2023-07-31T22:46:37;18.70;99.90
40434;DHT22;26146;51.114;5.654;2023-07-31T22:50:38;18.60;99.90
40434;DHT22;26146;51.114;5.654;2023-07-31T22:54:39;18.60;99.90
40434;DHT22;26146;51.114;5.654;2023-07-31T22:58:40;18.70;99.90
40434;DHT22;26146;51.114;5.654;2023-07-31T23:02:41;18.70;99.90
40434;DHT22;26146;51.114;5.654;2023-07-31T23:06:42;18.70;99.90
40434;DHT22;26146;51.114;5.654;2023-07-31T23:10:49;18.50;99.90
40434;DHT22;26146;51.114;5.654;2023-07-31T23:14:52;18.60;99.90
40434;DHT22;26146;51.114;5.654;2023-07-31T23:18:53;18.50;99.90
40434;DHT22;26146;51.114;5.654;2023-07-31T23:22:54;18.40;99.90
40434;DHT22;26146;51.114;5.654;2023-07-31T23:26:55;18.40;99.90
40434;DHT22;26146;51.114;5.654;2023-07-31T23:31:01;18.40;99.90
40434;DHT22;26146;51.114;5.654;2023-07-31T23:35:03;18.60;99.90
40434;DHT22;26146;51.114;5.654;2023-07-31T23:39:04;18.70;99.90
40434;DHT22;26146;51.114;5.654;2023-07-31T23:43:05;18.70;99.90
40434;DHT22;26146;51.114;5.654;2023-07-31T23:47:06;18.80;99.90
40434;DHT22;26146;51.114;5.654;2023-07-31T23:51:08;18.80;99.90
40434;DHT22;26146;51.114;5.654;2023-07-31T23:55:09;18.70;99.90
40434;DHT22;26146;51.114;5.654;2023-07-31T23:59:11;18.80;99.90
